sensor_id;sensor_type;location;lat;lon;timestamp;P1;durP1;ratioP1;P2;durP2;ratioP2
9846;SDS011;68671;50.084;8.794;2023-07-09T00:01:04;0.10;;;0.10;;
9846;SDS011;68671;50.084;8.794;2023-07-09T00:03:31;0.10;;;0.10;;
9846;SDS011;68671;50.084;8.794;2023-07-09T00:05:58;0.00;;;0.00;;
9846;SDS011;68671;50.084;8.794;2023-07-09T00:08:25;0.10;;;0.10;;
9846;SDS011;68671;50.084;8.794;2023-07-09T00:10:56;0.03;;;0.03;;
9846;SDS011;68671;50.084;8.794;2023-07-09T00:13:24;0.10;;;0.10;;
9846;SDS011;68671;50.084;8.794;2023-07-09T00:15:53;0.10;;;0.10;;
9846;SDS011;68671;50.084;8.794;2023-07-09T00:18:24;0.00;;;0.00;;
9846;SDS011;68671;50.084;8.794;2023-07-09T00:20:51;0.10;;;0.10;;
9846;SDS011;68671;50.084;8.794;2023-07-09T00:23:17;0.03;;;0.03;;
9846;SDS011;68671;50.084;8.794;2023-07-09T00:25:45;0.00;;;0.00;;
9846;SDS011;68671;50.084;8.794;2023-07-09T00:28:15;0.10;;;0.10;;
9846;SDS011;68671;50.084;8.794;2023-07-09T00:30:43;0.03;;;0.03;;
9846;SDS011;68671;50.084;8.794;2023-07-09T00:33:10;0.10;;;0.10;;
9846;SDS011;68671;50.084;8.794;2023-07-09T00:35:40;0.10;;;0.10;;
9846;SDS011;68671;50.084;8.794;2023-07-09T00:38:10;0.10;;;0.10;;
9846;SDS011;68671;50.084;8.794;2023-07-09T00:40:44;0.00;;;0.00;;
9846;SDS011;68671;50.084;8.794;2023-07-09T00:43:27;0.10;;;0.10;;
9846;SDS011;68671;50.084;8.794;2023-07-09T00:46:14;0.10;;;0.10;;
9846;SDS011;68671;50.084;8.794;2023-07-09T00:49:03;0.10;;;0.10;;
9846;SDS011;68671;50.084;8.794;2023-07-09T00:51:36;0.10;;;0.10;;
9846;SDS011;68671;50.084;8.794;2023-07-09T00:54:08;0.10;;;0.10;;
9846;SDS011;68671;50.084;8.794;2023-07-09T00:56:48;0.00;;;0.00;;
9846;SDS011;68671;50.084;8.794;2023-07-09T00:59:20;0.10;;;0.10;;
9846;SDS011;68671;50.084;8.794;2023-07-09T01:01:50;0.00;;;0.00;;
9846;SDS011;68671;50.084;8.794;2023-07-09T01:04:18;0.10;;;0.10;;
9846;SDS011;68671;50.084;8.794;2023-07-09T01:06:49;0.00;;;0.00;;
9846;SDS011;68671;50.084;8.794;2023-07-09T01:09:17;0.10;;;0.10;;
9846;SDS011;68671;50.084;8.794;2023-07-09T01:11:45;0.10;;;0.10;;
9846;SDS011;68671;50.084;8.794;2023-07-09T01:14:12;0.00;;;0.00;;
9846;SDS011;68671;50.084;8.794;2023-07-09T01:16:46;0.00;;;0.00;;
9846;SDS011;68671;50.084;8.794;2023-07-09T01:19:22;0.10;;;0.10;;
9846;SDS011;68671;50.084;8.794;2023-07-09T01:21:52;0.00;;;0.00;;
9846;SDS011;68671;50.084;8.794;2023-07-09T01:27:23;0.00;;;0.00;;
9846;SDS011;68671;50.084;8.794;2023-07-09T01:29:52;0.10;;;0.10;;
9846;SDS011;68671;50.084;8.794;2023-07-09T01:32:20;0.10;;;0.10;;
9846;SDS011;68671;50.084;8.794;2023-07-09T01:34:48;0.00;;;0.00;;
9846;SDS011;68671;50.084;8.794;2023-07-09T01:37:20;0.10;;;0.10;;
9846;SDS011;68671;50.084;8.794;2023-07-09T01:39:50;0.10;;;0.10;;
9846;SDS011;68671;50.084;8.794;2023-07-09T01:42:18;0.00;;;0.00;;
9846;SDS011;68671;50.084;8.794;2023-07-09T01:44:47;0.10;;;0.10;;
9846;SDS011;68671;50.084;8.794;2023-07-09T01:47:15;0.10;;;0.10;;
9846;SDS011;68671;50.084;8.794;2023-07-09T01:49:42;0.10;;;0.10;;
9846;SDS011;68671;50.084;8.794;2023-07-09T01:52:11;0.10;;;0.10;;
9846;SDS011;68671;50.084;8.794;2023-07-09T01:54:41;0.10;;;0.10;;
9846;SDS011;68671;50.084;8.794;2023-07-09T01:57:15;0.10;;;0.10;;
9846;SDS011;68671;50.084;8.794;2023-07-09T01:59:48;0.10;;;0.10;;
9846;SDS011;68671;50.084;8.794;2023-07-09T02:02:15;0.10;;;0.10;;
9846;SDS011;68671;50.084;8.794;2023-07-09T02:04:45;0.00;;;0.00;;
9846;SDS011;68671;50.084;8.794;2023-07-09T02:07:13;0.05;;;0.05;;
9846;SDS011;68671;50.084;8.794;2023-07-09T02:09:42;0.10;;;0.10;;
9846;SDS011;68671;50.084;8.794;2023-07-09T02:12:09;0.00;;;0.00;;
9846;SDS011;68671;50.084;8.794;2023-07-09T02:14:37;0.00;;;0.00;;
9846;SDS011;68671;50.084;8.794;2023-07-09T02:17:04;0.10;;;0.10;;
9846;SDS011;68671;50.084;8.794;2023-07-09T02:19:31;0.10;;;0.10;;
9846;SDS011;68671;50.084;8.794;2023-07-09T02:21:58;0.10;;;0.10;;
9846;SDS011;68671;50.084;8.794;2023-07-09T02:24:26;0.10;;;0.10;;
9846;SDS011;68671;50.084;8.794;2023-07-09T02:26:54;0.00;;;0.00;;
9846;SDS011;68671;50.084;8.794;2023-07-09T02:29:22;0.00;;;0.00;;
9846;SDS011;68671;50.084;8.794;2023-07-09T02:31:50;0.08;;;0.08;;
9846;SDS011;68671;50.084;8.794;2023-07-09T02:34:19;0.10;;;0.10;;
9846;SDS011;68671;50.084;8.794;2023-07-09T02:36:48;0.00;;;0.00;;
9846;SDS011;68671;50.084;8.794;2023-07-09T02:39:15;0.00;;;0.00;;
9846;SDS011;68671;50.084;8.794;2023-07-09T02:41:42;0.10;;;0.10;;
9846;SDS011;68671;50.084;8.794;2023-07-09T02:44:11;0.10;;;0.10;;
9846;SDS011;68671;50.084;8.794;2023-07-09T02:46:38;0.03;;;0.03;;
9846;SDS011;68671;50.084;8.794;2023-07-09T02:49:05;0.10;;;0.10;;
9846;SDS011;68671;50.084;8.794;2023-07-09T02:51:33;0.10;;;0.10;;
9846;SDS011;68671;50.084;8.794;2023-07-09T02:54:00;0.00;;;0.00;;
9846;SDS011;68671;50.084;8.794;2023-07-09T02:56:29;0.10;;;0.10;;
9846;SDS011;68671;50.084;8.794;2023-07-09T02:58:56;0.00;;;0.00;;
9846;SDS011;68671;50.084;8.794;2023-07-09T03:01:25;0.00;;;0.00;;
9846;SDS011;68671;50.084;8.794;2023-07-09T03:03:52;0.10;;;0.10;;
9846;SDS011;68671;50.084;8.794;2023-07-09T03:06:20;0.00;;;0.00;;
9846;SDS011;68671;50.084;8.794;2023-07-09T03:08:48;0.10;;;0.10;;
9846;SDS011;68671;50.084;8.794;2023-07-09T03:11:16;0.10;;;0.10;;
9846;SDS011;68671;50.084;8.794;2023-07-09T03:13:43;0.00;;;0.00;;
9846;SDS011;68671;50.084;8.794;2023-07-09T03:16:10;0.00;;;0.00;;
9846;SDS011;68671;50.084;8.794;2023-07-09T03:18:39;0.10;;;0.10;;
9846;SDS011;68671;50.084;8.794;2023-07-09T03:21:06;0.00;;;0.00;;
9846;SDS011;68671;50.084;8.794;2023-07-09T03:23:33;0.10;;;0.10;;
9846;SDS011;68671;50.084;8.794;2023-07-09T03:25:59;0.10;;;0.10;;
9846;SDS011;68671;50.084;8.794;2023-07-09T03:28:28;0.00;;;0.00;;
9846;SDS011;68671;50.084;8.794;2023-07-09T03:30:56;0.00;;;0.00;;
9846;SDS011;68671;50.084;8.794;2023-07-09T03:33:24;0.03;;;0.03;;
9846;SDS011;68671;50.084;8.794;2023-07-09T03:35:53;0.10;;;0.10;;
9846;SDS011;68671;50.084;8.794;2023-07-09T03:38:20;0.10;;;0.10;;
9846;SDS011;68671;50.084;8.794;2023-07-09T03:40:49;0.00;;;0.00;;
9846;SDS011;68671;50.084;8.794;2023-07-09T03:43:17;0.00;;;0.00;;
9846;SDS011;68671;50.084;8.794;2023-07-09T03:45:44;0.10;;;0.10;;
9846;SDS011;68671;50.084;8.794;2023-07-09T03:48:12;0.00;;;0.00;;
9846;SDS011;68671;50.084;8.794;2023-07-09T03:50:41;0.00;;;0.00;;
9846;SDS011;68671;50.084;8.794;2023-07-09T03:53:09;0.00;;;0.00;;
9846;SDS011;68671;50.084;8.794;2023-07-09T03:55:37;0.10;;;0.10;;
9846;SDS011;68671;50.084;8.794;2023-07-09T03:58:04;0.10;;;0.10;;
9846;SDS011;68671;50.084;8.794;2023-07-09T04:00:32;0.00;;;0.00;;
9846;SDS011;68671;50.084;8.794;2023-07-09T04:02:59;0.10;;;0.10;;
9846;SDS011;68671;50.084;8.794;2023-07-09T04:05:27;0.00;;;0.00;;
9846;SDS011;68671;50.084;8.794;2023-07-09T04:07:54;0.10;;;0.10;;
9846;SDS011;68671;50.084;8.794;2023-07-09T04:10:23;0.00;;;0.00;;
9846;SDS011;68671;50.084;8.794;2023-07-09T04:12:50;0.10;;;0.10;;
9846;SDS011;68671;50.084;8.794;2023-07-09T04:15:17;0.10;;;0.10;;
9846;SDS011;68671;50.084;8.794;2023-07-09T04:17:44;0.00;;;0.00;;
9846;SDS011;68671;50.084;8.794;2023-07-09T04:20:11;0.10;;;0.10;;
9846;SDS011;68671;50.084;8.794;2023-07-09T04:22:39;0.10;;;0.10;;
9846;SDS011;68671;50.084;8.794;2023-07-09T04:25:07;0.10;;;0.10;;
9846;SDS011;68671;50.084;8.794;2023-07-09T04:27:37;0.10;;;0.10;;
9846;SDS011;68671;50.084;8.794;2023-07-09T04:30:05;0.10;;;0.10;;
9846;SDS011;68671;50.084;8.794;2023-07-09T04:32:36;0.05;;;0.05;;
9846;SDS011;68671;50.084;8.794;2023-07-09T04:35:04;0.10;;;0.10;;
9846;SDS011;68671;50.084;8.794;2023-07-09T04:37:31;0.10;;;0.10;;
9846;SDS011;68671;50.084;8.794;2023-07-09T04:39:58;0.10;;;0.10;;
9846;SDS011;68671;50.084;8.794;2023-07-09T04:42:25;0.00;;;0.00;;
9846;SDS011;68671;50.084;8.794;2023-07-09T04:44:54;0.10;;;0.10;;
9846;SDS011;68671;50.084;8.794;2023-07-09T04:47:21;0.10;;;0.10;;
9846;SDS011;68671;50.084;8.794;2023-07-09T04:49:48;0.10;;;0.10;;
9846;SDS011;68671;50.084;8.794;2023-07-09T04:52:15;0.10;;;0.10;;
9846;SDS011;68671;50.084;8.794;2023-07-09T04:54:42;0.10;;;0.10;;
9846;SDS011;68671;50.084;8.794;2023-07-09T04:57:09;0.10;;;0.10;;
9846;SDS011;68671;50.084;8.794;2023-07-09T04:59:37;0.10;;;0.10;;
9846;SDS011;68671;50.084;8.794;2023-07-09T05:02:06;0.10;;;0.10;;
9846;SDS011;68671;50.084;8.794;2023-07-09T05:04:33;0.10;;;0.10;;
9846;SDS011;68671;50.084;8.794;2023-07-09T05:07:00;0.10;;;0.10;;
9846;SDS011;68671;50.084;8.794;2023-07-09T05:09:27;0.10;;;0.10;;
9846;SDS011;68671;50.084;8.794;2023-07-09T05:11:54;0.10;;;0.10;;
9846;SDS011;68671;50.084;8.794;2023-07-09T05:14:21;0.10;;;0.10;;
9846;SDS011;68671;50.084;8.794;2023-07-09T05:16:48;0.10;;;0.10;;
9846;SDS011;68671;50.084;8.794;2023-07-09T05:19:16;0.10;;;0.10;;
9846;SDS011;68671;50.084;8.794;2023-07-09T05:21:43;0.10;;;0.10;;
9846;SDS011;68671;50.084;8.794;2023-07-09T05:24:10;0.10;;;0.10;;
9846;SDS011;68671;50.084;8.794;2023-07-09T05:26:37;0.10;;;0.10;;
9846;SDS011;68671;50.084;8.794;2023-07-09T05:29:04;0.10;;;0.10;;
9846;SDS011;68671;50.084;8.794;2023-07-09T05:31:31;0.10;;;0.10;;
9846;SDS011;68671;50.084;8.794;2023-07-09T05:33:59;0.10;;;0.10;;
9846;SDS011;68671;50.084;8.794;2023-07-09T05:36:27;0.10;;;0.10;;
9846;SDS011;68671;50.084;8.794;2023-07-09T05:38:55;0.10;;;0.10;;
9846;SDS011;68671;50.084;8.794;2023-07-09T05:41:22;0.10;;;0.10;;
9846;SDS011;68671;50.084;8.794;2023-07-09T05:43:49;0.10;;;0.10;;
9846;SDS011;68671;50.084;8.794;2023-07-09T05:46:17;0.10;;;0.10;;
9846;SDS011;68671;50.084;8.794;2023-07-09T05:48:45;0.10;;;0.10;;
9846;SDS011;68671;50.084;8.794;2023-07-09T05:51:12;0.10;;;0.10;;
9846;SDS011;68671;50.084;8.794;2023-07-09T05:53:40;0.10;;;0.10;;
9846;SDS011;68671;50.084;8.794;2023-07-09T05:56:07;0.13;;;0.13;;
9846;SDS011;68671;50.084;8.794;2023-07-09T05:58:35;0.10;;;0.10;;
9846;SDS011;68671;50.084;8.794;2023-07-09T06:01:03;0.20;;;0.20;;
9846;SDS011;68671;50.084;8.794;2023-07-09T06:03:29;0.10;;;0.10;;
9846;SDS011;68671;50.084;8.794;2023-07-09T06:05:57;0.10;;;0.10;;
9846;SDS011;68671;50.084;8.794;2023-07-09T06:08:25;0.10;;;0.10;;
9846;SDS011;68671;50.084;8.794;2023-07-09T06:10:55;0.10;;;0.10;;
9846;SDS011;68671;50.084;8.794;2023-07-09T06:13:23;0.10;;;0.10;;
9846;SDS011;68671;50.084;8.794;2023-07-09T06:15:51;0.10;;;0.10;;
9846;SDS011;68671;50.084;8.794;2023-07-09T06:18:19;0.10;;;0.10;;
9846;SDS011;68671;50.084;8.794;2023-07-09T06:20:47;0.10;;;0.10;;
9846;SDS011;68671;50.084;8.794;2023-07-09T06:23:15;0.10;;;0.10;;
9846;SDS011;68671;50.084;8.794;2023-07-09T06:25:42;0.10;;;0.10;;
9846;SDS011;68671;50.084;8.794;2023-07-09T06:28:13;0.10;;;0.10;;
9846;SDS011;68671;50.084;8.794;2023-07-09T06:30:41;0.10;;;0.10;;
9846;SDS011;68671;50.084;8.794;2023-07-09T06:33:08;0.10;;;0.10;;
9846;SDS011;68671;50.084;8.794;2023-07-09T06:35:35;0.10;;;0.10;;
9846;SDS011;68671;50.084;8.794;2023-07-09T06:38:02;0.13;;;0.13;;
9846;SDS011;68671;50.084;8.794;2023-07-09T06:40:29;0.20;;;0.20;;
9846;SDS011;68671;50.084;8.794;2023-07-09T06:42:56;0.20;;;0.20;;
9846;SDS011;68671;50.084;8.794;2023-07-09T06:45:25;0.20;;;0.20;;
9846;SDS011;68671;50.084;8.794;2023-07-09T06:47:52;0.20;;;0.20;;
9846;SDS011;68671;50.084;8.794;2023-07-09T06:50:19;0.20;;;0.20;;
9846;SDS011;68671;50.084;8.794;2023-07-09T06:52:46;0.20;;;0.20;;
9846;SDS011;68671;50.084;8.794;2023-07-09T06:55:13;0.20;;;0.20;;
9846;SDS011;68671;50.084;8.794;2023-07-09T06:57:40;0.20;;;0.20;;
9846;SDS011;68671;50.084;8.794;2023-07-09T07:00:07;0.20;;;0.20;;
9846;SDS011;68671;50.084;8.794;2023-07-09T07:02:36;0.20;;;0.20;;
9846;SDS011;68671;50.084;8.794;2023-07-09T07:05:04;0.20;;;0.20;;
9846;SDS011;68671;50.084;8.794;2023-07-09T07:07:31;0.20;;;0.20;;
9846;SDS011;68671;50.084;8.794;2023-07-09T07:09:58;0.20;;;0.20;;
9846;SDS011;68671;50.084;8.794;2023-07-09T07:12:27;0.20;;;0.20;;
9846;SDS011;68671;50.084;8.794;2023-07-09T07:14:55;0.20;;;0.20;;
9846;SDS011;68671;50.084;8.794;2023-07-09T07:17:22;0.20;;;0.20;;
9846;SDS011;68671;50.084;8.794;2023-07-09T07:19:50;0.30;;;0.30;;
9846;SDS011;68671;50.084;8.794;2023-07-09T07:22:17;0.20;;;0.20;;
9846;SDS011;68671;50.084;8.794;2023-07-09T07:24:44;0.30;;;0.30;;
9846;SDS011;68671;50.084;8.794;2023-07-09T07:27:11;0.22;;;0.22;;
9846;SDS011;68671;50.084;8.794;2023-07-09T07:29:38;0.25;;;0.25;;
9846;SDS011;68671;50.084;8.794;2023-07-09T07:32:05;0.30;;;0.30;;
9846;SDS011;68671;50.084;8.794;2023-07-09T07:34:33;0.30;;;0.30;;
9846;SDS011;68671;50.084;8.794;2023-07-09T07:37:03;0.40;;;0.40;;
9846;SDS011;68671;50.084;8.794;2023-07-09T07:39:30;0.30;;;0.30;;
9846;SDS011;68671;50.084;8.794;2023-07-09T07:41:57;0.30;;;0.30;;
9846;SDS011;68671;50.084;8.794;2023-07-09T07:44:24;0.40;;;0.40;;
9846;SDS011;68671;50.084;8.794;2023-07-09T07:46:50;0.30;;;0.30;;
9846;SDS011;68671;50.084;8.794;2023-07-09T07:49:17;0.30;;;0.30;;
9846;SDS011;68671;50.084;8.794;2023-07-09T07:51:44;0.40;;;0.40;;
9846;SDS011;68671;50.084;8.794;2023-07-09T07:54:12;0.30;;;0.30;;
9846;SDS011;68671;50.084;8.794;2023-07-09T07:56:40;0.40;;;0.40;;
9846;SDS011;68671;50.084;8.794;2023-07-09T07:59:07;0.50;;;0.50;;
9846;SDS011;68671;50.084;8.794;2023-07-09T08:01:34;0.50;;;0.50;;
9846;SDS011;68671;50.084;8.794;2023-07-09T08:04:01;0.50;;;0.50;;
9846;SDS011;68671;50.084;8.794;2023-07-09T08:06:28;0.50;;;0.50;;
9846;SDS011;68671;50.084;8.794;2023-07-09T08:08:56;0.40;;;0.40;;
9846;SDS011;68671;50.084;8.794;2023-07-09T08:11:24;0.60;;;0.60;;
9846;SDS011;68671;50.084;8.794;2023-07-09T08:13:53;0.60;;;0.60;;
9846;SDS011;68671;50.084;8.794;2023-07-09T08:16:20;0.70;;;0.70;;
9846;SDS011;68671;50.084;8.794;2023-07-09T08:18:47;0.50;;;0.50;;
9846;SDS011;68671;50.084;8.794;2023-07-09T08:21:14;0.65;;;0.65;;
9846;SDS011;68671;50.084;8.794;2023-07-09T08:23:41;0.60;;;0.60;;
9846;SDS011;68671;50.084;8.794;2023-07-09T08:26:07;0.68;;;0.68;;
9846;SDS011;68671;50.084;8.794;2023-07-09T08:28:37;0.55;;;0.55;;
9846;SDS011;68671;50.084;8.794;2023-07-09T08:31:04;0.52;;;0.52;;
9846;SDS011;68671;50.084;8.794;2023-07-09T08:33:31;0.57;;;0.57;;
9846;SDS011;68671;50.084;8.794;2023-07-09T08:35:58;0.40;;;0.40;;
9846;SDS011;68671;50.084;8.794;2023-07-09T08:38:25;0.60;;;0.60;;
9846;SDS011;68671;50.084;8.794;2023-07-09T08:40:54;0.20;;;0.20;;
9846;SDS011;68671;50.084;8.794;2023-07-09T08:43:28;0.30;;;0.30;;
9846;SDS011;68671;50.084;8.794;2023-07-09T08:46:07;0.20;;;0.20;;
9846;SDS011;68671;50.084;8.794;2023-07-09T08:48:43;0.20;;;0.20;;
9846;SDS011;68671;50.084;8.794;2023-07-09T08:51:19;0.20;;;0.20;;
9846;SDS011;68671;50.084;8.794;2023-07-09T08:53:53;0.10;;;0.10;;
9846;SDS011;68671;50.084;8.794;2023-07-09T08:56:23;0.10;;;0.10;;
9846;SDS011;68671;50.084;8.794;2023-07-09T08:58:52;0.20;;;0.20;;
9846;SDS011;68671;50.084;8.794;2023-07-09T09:01:24;0.10;;;0.10;;
9846;SDS011;68671;50.084;8.794;2023-07-09T09:03:57;0.10;;;0.10;;
9846;SDS011;68671;50.084;8.794;2023-07-09T09:06:29;0.10;;;0.10;;
9846;SDS011;68671;50.084;8.794;2023-07-09T09:08:59;0.10;;;0.10;;
9846;SDS011;68671;50.084;8.794;2023-07-09T09:11:33;0.10;;;0.10;;
9846;SDS011;68671;50.084;8.794;2023-07-09T09:14:14;0.10;;;0.10;;
9846;SDS011;68671;50.084;8.794;2023-07-09T09:16:54;0.10;;;0.10;;
9846;SDS011;68671;50.084;8.794;2023-07-09T09:19:23;0.10;;;0.10;;
9846;SDS011;68671;50.084;8.794;2023-07-09T09:21:56;0.10;;;0.10;;
9846;SDS011;68671;50.084;8.794;2023-07-09T09:24:30;0.10;;;0.10;;
9846;SDS011;68671;50.084;8.794;2023-07-09T09:27:00;0.10;;;0.10;;
9846;SDS011;68671;50.084;8.794;2023-07-09T09:29:28;0.10;;;0.10;;
9846;SDS011;68671;50.084;8.794;2023-07-09T09:31:57;0.10;;;0.10;;
9846;SDS011;68671;50.084;8.794;2023-07-09T09:34:44;0.10;;;0.10;;
9846;SDS011;68671;50.084;8.794;2023-07-09T09:37:11;0.10;;;0.10;;
9846;SDS011;68671;50.084;8.794;2023-07-09T09:39:38;0.10;;;0.10;;
9846;SDS011;68671;50.084;8.794;2023-07-09T09:42:10;0.10;;;0.10;;
9846;SDS011;68671;50.084;8.794;2023-07-09T09:44:42;0.10;;;0.10;;
9846;SDS011;68671;50.084;8.794;2023-07-09T09:47:12;0.10;;;0.10;;
9846;SDS011;68671;50.084;8.794;2023-07-09T09:49:39;0.10;;;0.10;;
9846;SDS011;68671;50.084;8.794;2023-07-09T09:52:09;0.10;;;0.10;;
9846;SDS011;68671;50.084;8.794;2023-07-09T09:54:40;0.10;;;0.10;;
9846;SDS011;68671;50.084;8.794;2023-07-09T09:57:15;0.10;;;0.10;;
9846;SDS011;68671;50.084;8.794;2023-07-09T09:59:44;0.10;;;0.10;;
9846;SDS011;68671;50.084;8.794;2023-07-09T10:02:17;0.10;;;0.10;;
9846;SDS011;68671;50.084;8.794;2023-07-09T10:04:48;0.10;;;0.10;;
9846;SDS011;68671;50.084;8.794;2023-07-09T10:07:18;0.10;;;0.10;;
9846;SDS011;68671;50.084;8.794;2023-07-09T10:09:49;0.10;;;0.10;;
9846;SDS011;68671;50.084;8.794;2023-07-09T10:12:22;0.10;;;0.10;;
9846;SDS011;68671;50.084;8.794;2023-07-09T10:15:03;0.10;;;0.10;;
9846;SDS011;68671;50.084;8.794;2023-07-09T10:17:45;0.10;;;0.10;;
9846;SDS011;68671;50.084;8.794;2023-07-09T10:20:21;0.10;;;0.10;;
9846;SDS011;68671;50.084;8.794;2023-07-09T10:22:53;0.10;;;0.10;;
9846;SDS011;68671;50.084;8.794;2023-07-09T10:25:48;0.10;;;0.10;;
9846;SDS011;68671;50.084;8.794;2023-07-09T10:28:26;0.10;;;0.10;;
9846;SDS011;68671;50.084;8.794;2023-07-09T10:31:10;0.10;;;0.10;;
9846;SDS011;68671;50.084;8.794;2023-07-09T10:33:51;0.10;;;0.10;;
9846;SDS011;68671;50.084;8.794;2023-07-09T10:36:30;0.10;;;0.10;;
9846;SDS011;68671;50.084;8.794;2023-07-09T10:39:05;0.10;;;0.10;;
9846;SDS011;68671;50.084;8.794;2023-07-09T10:41:35;0.10;;;0.10;;
9846;SDS011;68671;50.084;8.794;2023-07-09T10:44:05;0.10;;;0.10;;
9846;SDS011;68671;50.084;8.794;2023-07-09T10:46:38;0.10;;;0.10;;
9846;SDS011;68671;50.084;8.794;2023-07-09T10:49:10;0.10;;;0.10;;
9846;SDS011;68671;50.084;8.794;2023-07-09T10:51:40;0.10;;;0.10;;
9846;SDS011;68671;50.084;8.794;2023-07-09T10:54:14;0.10;;;0.10;;
9846;SDS011;68671;50.084;8.794;2023-07-09T10:56:45;0.10;;;0.10;;
9846;SDS011;68671;50.084;8.794;2023-07-09T10:59:19;0.10;;;0.10;;
9846;SDS011;68671;50.084;8.794;2023-07-09T11:01:49;0.10;;;0.10;;
9846;SDS011;68671;50.084;8.794;2023-07-09T11:04:24;0.10;;;0.10;;
9846;SDS011;68671;50.084;8.794;2023-07-09T11:06:56;0.10;;;0.10;;
9846;SDS011;68671;50.084;8.794;2023-07-09T11:09:27;0.10;;;0.10;;
9846;SDS011;68671;50.084;8.794;2023-07-09T11:11:58;0.10;;;0.10;;
9846;SDS011;68671;50.084;8.794;2023-07-09T11:14:30;0.10;;;0.10;;
9846;SDS011;68671;50.084;8.794;2023-07-09T11:17:02;0.10;;;0.10;;
9846;SDS011;68671;50.084;8.794;2023-07-09T11:19:40;0.10;;;0.10;;
9846;SDS011;68671;50.084;8.794;2023-07-09T11:22:14;0.10;;;0.10;;
9846;SDS011;68671;50.084;8.794;2023-07-09T11:24:47;0.10;;;0.10;;
9846;SDS011;68671;50.084;8.794;2023-07-09T11:27:17;0.10;;;0.10;;
9846;SDS011;68671;50.084;8.794;2023-07-09T11:29:47;0.10;;;0.10;;
9846;SDS011;68671;50.084;8.794;2023-07-09T11:32:21;0.10;;;0.10;;
9846;SDS011;68671;50.084;8.794;2023-07-09T11:34:50;0.10;;;0.10;;
9846;SDS011;68671;50.084;8.794;2023-07-09T11:37:17;0.10;;;0.10;;
9846;SDS011;68671;50.084;8.794;2023-07-09T11:39:45;0.10;;;0.10;;
9846;SDS011;68671;50.084;8.794;2023-07-09T11:42:23;0.10;;;0.10;;
9846;SDS011;68671;50.084;8.794;2023-07-09T11:44:57;0.10;;;0.10;;
9846;SDS011;68671;50.084;8.794;2023-07-09T11:47:33;0.10;;;0.10;;
9846;SDS011;68671;50.084;8.794;2023-07-09T11:50:06;0.10;;;0.10;;
9846;SDS011;68671;50.084;8.794;2023-07-09T11:52:47;0.10;;;0.10;;
9846;SDS011;68671;50.084;8.794;2023-07-09T11:55:19;0.10;;;0.10;;
9846;SDS011;68671;50.084;8.794;2023-07-09T11:57:54;0.10;;;0.10;;
9846;SDS011;68671;50.084;8.794;2023-07-09T12:00:22;0.10;;;0.10;;
9846;SDS011;68671;50.084;8.794;2023-07-09T12:02:49;0.10;;;0.10;;
9846;SDS011;68671;50.084;8.794;2023-07-09T12:05:22;0.10;;;0.10;;
9846;SDS011;68671;50.084;8.794;2023-07-09T12:07:53;0.10;;;0.10;;
9846;SDS011;68671;50.084;8.794;2023-07-09T12:10:21;0.10;;;0.10;;
9846;SDS011;68671;50.084;8.794;2023-07-09T12:12:53;0.10;;;0.10;;
9846;SDS011;68671;50.084;8.794;2023-07-09T12:15:22;0.10;;;0.10;;
9846;SDS011;68671;50.084;8.794;2023-07-09T12:17:54;0.10;;;0.10;;
9846;SDS011;68671;50.084;8.794;2023-07-09T12:20:24;0.10;;;0.10;;
9846;SDS011;68671;50.084;8.794;2023-07-09T12:22:51;0.10;;;0.10;;
9846;SDS011;68671;50.084;8.794;2023-07-09T12:25:19;0.10;;;0.10;;
9846;SDS011;68671;50.084;8.794;2023-07-09T12:27:50;0.10;;;0.10;;
9846;SDS011;68671;50.084;8.794;2023-07-09T12:30:17;0.10;;;0.10;;
9846;SDS011;68671;50.084;8.794;2023-07-09T12:32:44;0.10;;;0.10;;
9846;SDS011;68671;50.084;8.794;2023-07-09T12:35:14;0.10;;;0.10;;
9846;SDS011;68671;50.084;8.794;2023-07-09T12:37:44;0.10;;;0.10;;
9846;SDS011;68671;50.084;8.794;2023-07-09T12:40:13;0.10;;;0.10;;
9846;SDS011;68671;50.084;8.794;2023-07-09T12:42:42;0.10;;;0.10;;
9846;SDS011;68671;50.084;8.794;2023-07-09T12:45:13;0.10;;;0.10;;
9846;SDS011;68671;50.084;8.794;2023-07-09T12:47:43;0.10;;;0.10;;
9846;SDS011;68671;50.084;8.794;2023-07-09T12:50:21;0.10;;;0.10;;
9846;SDS011;68671;50.084;8.794;2023-07-09T12:53:00;0.10;;;0.10;;
9846;SDS011;68671;50.084;8.794;2023-07-09T12:55:28;0.10;;;0.10;;
9846;SDS011;68671;50.084;8.794;2023-07-09T12:58:03;0.10;;;0.10;;
9846;SDS011;68671;50.084;8.794;2023-07-09T13:00:30;0.10;;;0.10;;
9846;SDS011;68671;50.084;8.794;2023-07-09T13:02:58;0.10;;;0.10;;
9846;SDS011;68671;50.084;8.794;2023-07-09T13:05:25;0.10;;;0.10;;
9846;SDS011;68671;50.084;8.794;2023-07-09T13:07:54;0.10;;;0.10;;
9846;SDS011;68671;50.084;8.794;2023-07-09T13:10:26;0.10;;;0.10;;
9846;SDS011;68671;50.084;8.794;2023-07-09T13:12:56;0.10;;;0.10;;
9846;SDS011;68671;50.084;8.794;2023-07-09T13:15:27;0.10;;;0.10;;
9846;SDS011;68671;50.084;8.794;2023-07-09T13:18:02;0.10;;;0.10;;
9846;SDS011;68671;50.084;8.794;2023-07-09T13:20:32;0.10;;;0.10;;
9846;SDS011;68671;50.084;8.794;2023-07-09T13:23:07;0.10;;;0.10;;
9846;SDS011;68671;50.084;8.794;2023-07-09T13:25:36;0.10;;;0.10;;
9846;SDS011;68671;50.084;8.794;2023-07-09T13:28:07;0.10;;;0.10;;
9846;SDS011;68671;50.084;8.794;2023-07-09T13:30:40;0.10;;;0.10;;
9846;SDS011;68671;50.084;8.794;2023-07-09T13:33:07;0.10;;;0.10;;
9846;SDS011;68671;50.084;8.794;2023-07-09T13:35:35;0.10;;;0.10;;
9846;SDS011;68671;50.084;8.794;2023-07-09T13:38:02;0.10;;;0.10;;
9846;SDS011;68671;50.084;8.794;2023-07-09T13:40:32;0.10;;;0.10;;
9846;SDS011;68671;50.084;8.794;2023-07-09T13:42:59;0.10;;;0.10;;
9846;SDS011;68671;50.084;8.794;2023-07-09T13:45:25;0.10;;;0.10;;
9846;SDS011;68671;50.084;8.794;2023-07-09T13:47:52;0.10;;;0.10;;
9846;SDS011;68671;50.084;8.794;2023-07-09T13:50:20;0.10;;;0.10;;
9846;SDS011;68671;50.084;8.794;2023-07-09T13:52:48;0.10;;;0.10;;
9846;SDS011;68671;50.084;8.794;2023-07-09T13:55:17;0.10;;;0.10;;
9846;SDS011;68671;50.084;8.794;2023-07-09T13:57:47;0.10;;;0.10;;
9846;SDS011;68671;50.084;8.794;2023-07-09T14:00:19;0.10;;;0.10;;
9846;SDS011;68671;50.084;8.794;2023-07-09T14:02:47;0.10;;;0.10;;
9846;SDS011;68671;50.084;8.794;2023-07-09T14:05:14;0.10;;;0.10;;
9846;SDS011;68671;50.084;8.794;2023-07-09T14:07:41;0.10;;;0.10;;
9846;SDS011;68671;50.084;8.794;2023-07-09T14:10:13;0.10;;;0.10;;
9846;SDS011;68671;50.084;8.794;2023-07-09T14:12:47;0.10;;;0.10;;
9846;SDS011;68671;50.084;8.794;2023-07-09T14:15:16;0.10;;;0.10;;
9846;SDS011;68671;50.084;8.794;2023-07-09T14:17:45;0.10;;;0.10;;
9846;SDS011;68671;50.084;8.794;2023-07-09T14:20:12;0.10;;;0.10;;
9846;SDS011;68671;50.084;8.794;2023-07-09T14:23:01;0.10;;;0.10;;
9846;SDS011;68671;50.084;8.794;2023-07-09T14:25:45;0.10;;;0.10;;
9846;SDS011;68671;50.084;8.794;2023-07-09T14:28:14;0.10;;;0.10;;
9846;SDS011;68671;50.084;8.794;2023-07-09T14:30:43;0.10;;;0.10;;
9846;SDS011;68671;50.084;8.794;2023-07-09T14:33:13;0.10;;;0.10;;
9846;SDS011;68671;50.084;8.794;2023-07-09T14:35:49;0.10;;;0.10;;
9846;SDS011;68671;50.084;8.794;2023-07-09T14:38:18;0.10;;;0.10;;
9846;SDS011;68671;50.084;8.794;2023-07-09T14:40:47;0.10;;;0.10;;
9846;SDS011;68671;50.084;8.794;2023-07-09T14:43:19;0.10;;;0.10;;
9846;SDS011;68671;50.084;8.794;2023-07-09T14:45:46;0.10;;;0.10;;
9846;SDS011;68671;50.084;8.794;2023-07-09T14:48:14;0.05;;;0.05;;
9846;SDS011;68671;50.084;8.794;2023-07-09T14:50:44;0.10;;;0.10;;
9846;SDS011;68671;50.084;8.794;2023-07-09T14:53:14;0.10;;;0.10;;
9846;SDS011;68671;50.084;8.794;2023-07-09T14:55:43;0.10;;;0.10;;
9846;SDS011;68671;50.084;8.794;2023-07-09T14:58:15;0.10;;;0.10;;
9846;SDS011;68671;50.084;8.794;2023-07-09T15:00:43;0.00;;;0.00;;
9846;SDS011;68671;50.084;8.794;2023-07-09T15:03:12;0.03;;;0.03;;
9846;SDS011;68671;50.084;8.794;2023-07-09T15:05:44;0.00;;;0.00;;
9846;SDS011;68671;50.084;8.794;2023-07-09T15:08:12;0.03;;;0.03;;
9846;SDS011;68671;50.084;8.794;2023-07-09T15:10:39;0.10;;;0.10;;
9846;SDS011;68671;50.084;8.794;2023-07-09T15:13:09;0.00;;;0.00;;
9846;SDS011;68671;50.084;8.794;2023-07-09T15:15:46;0.10;;;0.10;;
9846;SDS011;68671;50.084;8.794;2023-07-09T15:18:14;0.10;;;0.10;;